createdAt,value
2023-01-04T00:01:26.188Z,13.93
2023-01-04T00:03:52.691Z,13.02
2023-01-04T00:06:20.591Z,11.45
2023-01-04T00:08:47.027Z,12.38
2023-01-04T00:11:15.821Z,13.80
2023-01-04T00:13:42.960Z,16.15
2023-01-04T00:16:13.557Z,12.23
2023-01-04T00:18:40.956Z,11.88
2023-01-04T00:21:12.828Z,12.98
2023-01-04T00:23:42.065Z,13.93
2023-01-04T00:26:28.374Z,18.50
2023-01-04T00:28:59.387Z,13.63
2023-01-04T00:31:26.582Z,11.68
2023-01-04T00:33:57.239Z,11.85
2023-01-04T00:36:24.032Z,10.68
2023-01-04T00:39:09.900Z,12.50
2023-01-04T00:41:59.852Z,12.68
2023-01-04T00:44:27.777Z,14.05
2023-01-04T00:46:54.561Z,13.15
2023-01-04T00:49:20.998Z,13.77
2023-01-04T00:51:47.377Z,14.07
2023-01-04T00:54:15.855Z,14.70
2023-01-04T00:56:42.934Z,12.27
2023-01-04T00:59:10.439Z,11.70
2023-01-04T01:01:36.985Z,14.98
2023-01-04T01:04:04.556Z,11.10
2023-01-04T01:06:32.781Z,12.35
2023-01-04T01:08:59.613Z,16.45
2023-01-04T01:11:26.547Z,15.02
2023-01-04T01:13:53.238Z,13.80
2023-01-04T01:16:44.420Z,13.68
2023-01-04T01:19:08.840Z,16.25
2023-01-04T01:21:35.197Z,16.75
2023-01-04T01:24:01.543Z,16.75
2023-01-04T01:26:27.953Z,13.48
2023-01-04T01:28:54.308Z,16.77
2023-01-04T01:31:23.683Z,16.55
2023-01-04T01:33:51.789Z,16.77
2023-01-04T01:36:19.990Z,17.13
2023-01-04T01:38:46.347Z,19.48
2023-01-04T01:41:21.111Z,17.52
2023-01-04T01:44:00.589Z,15.68
2023-01-04T01:46:31.063Z,15.77
2023-01-04T01:49:17.047Z,19.15
2023-01-04T01:51:44.307Z,18.88
2023-01-04T01:54:14.445Z,16.05
2023-01-04T01:56:42.250Z,18.92
2023-01-04T01:59:09.779Z,17.55
2023-01-04T02:01:36.484Z,16.55
2023-01-04T02:04:04.224Z,14.90
2023-01-04T02:06:37.167Z,17.80
2023-01-04T02:09:03.626Z,17.23
2023-01-04T02:11:30.187Z,15.48
2023-01-04T02:14:16.529Z,18.40
2023-01-04T02:17:02.731Z,20.15
2023-01-04T02:19:42.772Z,15.60
2023-01-04T02:22:24.833Z,16.33
2023-01-04T02:25:30.098Z,14.38
2023-01-04T02:28:03.416Z,14.43
2023-01-04T02:30:44.768Z,17.00
2023-01-04T02:33:13.813Z,18.80
2023-01-04T02:35:55.077Z,17.08
2023-01-04T02:38:51.983Z,15.77
2023-01-04T02:41:37.046Z,15.57
2023-01-04T02:44:44.050Z,17.58
2023-01-04T02:47:14.318Z,17.35
2023-01-04T02:50:04.225Z,15.23
2023-01-04T02:52:31.723Z,15.60
2023-01-04T02:54:58.235Z,13.38
2023-01-04T02:57:28.974Z,11.98
2023-01-04T03:00:12.162Z,15.40
2023-01-04T03:03:04.135Z,13.18
2023-01-04T03:06:13.694Z,14.35
2023-01-04T03:08:54.875Z,16.05
2023-01-04T03:11:39.944Z,11.77
2023-01-04T03:14:31.322Z,14.68
2023-01-04T03:17:01.535Z,13.10
2023-01-04T03:19:46.506Z,12.35
2023-01-04T03:22:34.314Z,14.10
2023-01-04T03:25:20.675Z,13.77
2023-01-04T03:28:06.764Z,13.95
2023-01-04T03:30:54.231Z,15.43
2023-01-04T03:33:39.425Z,14.95
2023-01-04T03:36:28.237Z,12.15
2023-01-04T03:39:22.325Z,16.63
2023-01-04T03:42:11.512Z,14.75
2023-01-04T03:45:25.318Z,14.98
2023-01-04T03:48:18.693Z,19.02
2023-01-04T03:50:49.501Z,12.50
2023-01-04T03:53:15.956Z,14.93
2023-01-04T03:55:43.309Z,14.23
2023-01-04T03:58:10.033Z,19.52
2023-01-04T04:00:36.429Z,16.85
2023-01-04T04:03:08.787Z,17.65
2023-01-04T04:05:57.687Z,17.73
2023-01-04T04:08:29.898Z,17.10
2023-01-04T04:11:20.665Z,21.77
2023-01-04T04:13:47.796Z,19.17
2023-01-04T04:16:14.380Z,19.15
2023-01-04T04:18:40.970Z,18.10
2023-01-04T04:21:07.376Z,22.58
2023-01-04T04:23:33.766Z,22.30
2023-01-04T04:26:00.314Z,20.13
2023-01-04T04:28:26.720Z,25.55
2023-01-04T04:30:53.078Z,24.15
2023-01-04T04:33:19.449Z,22.88
2023-01-04T04:35:50.187Z,21.55
2023-01-04T04:38:16.559Z,26.35
2023-01-04T04:41:01.630Z,22.17
2023-01-04T04:43:28.031Z,24.98
2023-01-04T04:45:54.469Z,24.67
2023-01-04T04:48:20.900Z,24.48
2023-01-04T04:50:47.353Z,24.38
2023-01-04T04:53:13.672Z,21.33
2023-01-04T04:55:40.016Z,23.60
2023-01-04T04:58:06.388Z,24.77
2023-01-04T05:00:32.781Z,21.98
2023-01-04T05:03:00.252Z,24.00
2023-01-04T05:05:27.461Z,20.17
2023-01-04T05:07:53.897Z,21.40
2023-01-04T05:10:20.265Z,19.73
2023-01-04T05:13:01.631Z,18.38
2023-01-04T05:15:33.770Z,19.08
2023-01-04T05:18:00.237Z,22.52
2023-01-04T05:20:26.931Z,17.73
2023-01-04T05:22:53.455Z,18.85
2023-01-04T05:25:19.797Z,19.75
2023-01-04T05:27:46.335Z,15.57
2023-01-04T05:30:33.176Z,16.98
2023-01-04T05:33:00.053Z,14.38
2023-01-04T05:35:26.513Z,16.98
2023-01-04T05:37:52.918Z,16.38
2023-01-04T05:40:20.029Z,15.57
2023-01-04T05:42:47.122Z,16.50
2023-01-04T05:45:14.871Z,17.05
2023-01-04T05:47:41.254Z,13.45
2023-01-04T05:50:08.632Z,15.68
2023-01-04T05:52:35.007Z,14.68
2023-01-04T05:55:01.658Z,13.20
2023-01-04T05:57:28.044Z,11.57
2023-01-04T05:59:54.478Z,16.52
2023-01-04T06:02:23.629Z,14.38
2023-01-04T06:04:56.345Z,11.55
2023-01-04T06:07:24.715Z,12.15
2023-01-04T06:09:51.345Z,14.75
2023-01-04T06:12:17.919Z,13.55
2023-01-04T06:14:44.448Z,16.30
2023-01-04T06:17:10.987Z,14.20
2023-01-04T06:19:37.403Z,14.25
2023-01-04T06:22:04.380Z,13.98
2023-01-04T06:24:30.769Z,12.75
2023-01-04T06:26:57.114Z,14.73
2023-01-04T06:29:23.482Z,12.25
2023-01-04T06:31:49.858Z,15.88
2023-01-04T06:34:16.233Z,13.60
2023-01-04T06:36:42.681Z,12.32
2023-01-04T06:39:09.329Z,13.40
2023-01-04T06:41:35.855Z,13.15
2023-01-04T06:44:02.396Z,14.00
2023-01-04T06:46:28.860Z,12.55
2023-01-04T06:48:55.300Z,14.25
2023-01-04T06:51:22.118Z,17.67
2023-01-04T06:53:48.876Z,14.18
2023-01-04T06:56:15.457Z,16.38
2023-01-04T06:58:41.928Z,16.52
2023-01-04T07:01:08.619Z,16.70
2023-01-04T07:03:35.292Z,13.45
2023-01-04T07:06:06.257Z,15.90
2023-01-04T07:08:33.677Z,12.80
2023-01-04T07:11:00.163Z,13.85
2023-01-04T07:13:26.562Z,15.18
2023-01-04T07:15:52.997Z,15.10
2023-01-04T07:18:19.339Z,16.38
2023-01-04T07:20:47.593Z,15.80
2023-01-04T07:23:14.034Z,14.50
2023-01-04T07:25:40.499Z,17.80
2023-01-04T07:28:07.029Z,14.95
2023-01-04T07:30:33.425Z,14.00
2023-01-04T07:32:59.840Z,14.85
2023-01-04T07:35:26.489Z,17.13
2023-01-04T07:37:58.256Z,17.02
2023-01-04T07:40:26.692Z,15.10
2023-01-04T07:42:59.584Z,13.98
2023-01-04T07:45:26.083Z,15.13
2023-01-04T07:47:52.404Z,13.45
2023-01-04T07:50:18.920Z,15.30
2023-01-04T07:52:45.309Z,13.05
2023-01-04T07:55:11.681Z,13.43
2023-01-04T07:57:38.245Z,15.48
2023-01-04T08:00:05.369Z,14.68
2023-01-04T08:02:31.808Z,17.05
2023-01-04T08:04:58.338Z,14.40
2023-01-04T08:07:24.765Z,16.85
2023-01-04T08:09:51.127Z,16.85
2023-01-04T08:12:17.622Z,13.85
2023-01-04T08:14:44.005Z,15.18
2023-01-04T08:17:10.439Z,14.25
2023-01-04T08:19:36.877Z,12.15
2023-01-04T08:22:03.256Z,11.45
2023-01-04T08:24:30.051Z,11.98
2023-01-04T08:26:56.404Z,13.98
2023-01-04T08:29:22.781Z,12.57
2023-01-04T08:31:49.287Z,10.90
2023-01-04T08:34:15.863Z,11.55
2023-01-04T08:36:48.231Z,11.63
2023-01-04T08:39:14.731Z,10.30
2023-01-04T08:42:04.832Z,10.07
2023-01-04T08:44:37.342Z,11.27
2023-01-04T08:47:03.849Z,11.15
2023-01-04T08:49:30.264Z,10.40
2023-01-04T08:51:56.668Z,9.75
2023-01-04T08:54:23.048Z,10.90
2023-01-04T08:56:49.484Z,9.02
2023-01-04T08:59:15.955Z,10.35
2023-01-04T09:01:42.523Z,12.07
2023-01-04T09:04:09.319Z,9.55
2023-01-04T09:06:37.112Z,10.07
2023-01-04T09:09:03.494Z,8.60
2023-01-04T09:11:29.995Z,8.65
2023-01-04T09:14:07.253Z,7.88
2023-01-04T09:16:35.255Z,8.63
2023-01-04T09:19:01.852Z,8.60
2023-01-04T09:21:28.548Z,7.43
2023-01-04T09:23:56.827Z,9.43
2023-01-04T09:26:23.671Z,8.18
2023-01-04T09:28:51.942Z,12.55
2023-01-04T09:31:24.102Z,7.88
2023-01-04T09:36:36.948Z,6.25
2023-01-04T09:39:03.409Z,10.15
2023-01-04T09:41:32.648Z,9.48
2023-01-04T09:44:04.952Z,6.75
2023-01-04T09:46:41.537Z,13.30
2023-01-04T09:50:00.209Z,8.02
2023-01-04T09:53:09.771Z,11.45
2023-01-04T09:55:42.879Z,8.95
2023-01-04T09:58:33.260Z,5.65
2023-01-04T10:01:06.444Z,9.82
2023-01-04T10:03:38.927Z,6.93
2023-01-04T10:06:12.626Z,5.80
2023-01-04T10:08:41.797Z,8.25
2023-01-04T10:11:29.868Z,7.05
2023-01-04T10:14:03.618Z,5.93
2023-01-04T10:17:11.360Z,3.70
2023-01-04T10:22:50.426Z,3.13
2023-01-04T10:25:49.999Z,4.78
2023-01-04T10:28:23.981Z,3.78
2023-01-04T10:31:01.014Z,4.97
2023-01-04T10:33:49.809Z,4.13
2023-01-04T10:36:21.779Z,3.05
2023-01-04T10:38:59.250Z,4.10
2023-01-04T10:41:27.062Z,4.00
2023-01-04T10:44:16.298Z,3.50
2023-01-04T10:47:10.416Z,2.90
2023-01-04T10:49:55.350Z,4.30
2023-01-04T10:52:51.030Z,4.03
2023-01-04T10:55:31.136Z,4.75
2023-01-04T10:58:05.027Z,4.22
2023-01-04T11:00:39.136Z,3.05
2023-01-04T11:03:23.642Z,5.47
2023-01-04T11:06:16.905Z,2.45
2023-01-04T11:08:48.163Z,2.45
2023-01-04T11:11:20.583Z,4.38
2023-01-04T11:13:46.943Z,3.85
2023-01-04T11:16:13.500Z,4.15
2023-01-04T11:18:41.009Z,3.05
2023-01-04T11:21:09.520Z,2.83
2023-01-04T11:23:35.888Z,2.28
2023-01-04T11:26:24.443Z,3.95
2023-01-04T11:29:06.262Z,2.72
2023-01-04T11:32:01.487Z,3.90
2023-01-04T11:34:54.518Z,2.40
2023-01-04T11:37:23.949Z,3.85
2023-01-04T11:39:50.355Z,2.80
2023-01-04T11:42:21.256Z,3.20
2023-01-04T11:44:59.994Z,2.15
2023-01-04T11:47:29.823Z,4.03
2023-01-04T11:49:59.498Z,4.22
2023-01-04T11:52:30.754Z,2.83
2023-01-04T11:54:58.032Z,3.90
2023-01-04T11:57:24.591Z,2.72
2023-01-04T12:00:13.581Z,3.28
2023-01-04T12:03:00.733Z,3.83
2023-01-04T12:05:30.314Z,3.58
2023-01-04T12:07:58.154Z,3.67
2023-01-04T12:10:27.637Z,2.75
2023-01-04T12:12:55.230Z,2.65
2023-01-04T12:15:40.199Z,3.83
2023-01-04T12:18:14.169Z,3.08
2023-01-04T12:20:41.058Z,2.60
2023-01-04T12:23:09.812Z,1.98
2023-01-04T12:25:46.711Z,3.10
2023-01-04T12:28:33.854Z,4.57
2023-01-04T12:31:26.773Z,4.60
2023-01-04T12:33:56.086Z,3.58
2023-01-04T12:36:37.886Z,3.33
2023-01-04T12:39:18.120Z,4.90
2023-01-04T12:42:00.246Z,3.33
2023-01-04T12:44:39.103Z,4.10
2023-01-04T12:48:04.139Z,4.15
2023-01-04T12:50:32.136Z,2.80
2023-01-04T12:53:20.091Z,4.05
2023-01-04T12:55:52.328Z,2.97
2023-01-04T12:58:58.256Z,6.32
2023-01-04T13:01:33.466Z,3.25
2023-01-04T13:04:18.062Z,3.58
2023-01-04T13:09:46.563Z,3.78
2023-01-04T13:12:40.217Z,2.88
2023-01-04T13:15:17.688Z,3.17
2023-01-04T13:17:46.777Z,3.53
2023-01-04T13:20:15.463Z,4.35
2023-01-04T13:22:48.477Z,3.08
2023-01-04T13:25:17.163Z,3.25
2023-01-04T13:28:19.923Z,4.43
2023-01-04T13:30:48.996Z,3.50
2023-01-04T13:33:28.771Z,3.92
2023-01-04T13:36:04.415Z,3.42
2023-01-04T13:38:32.111Z,3.00
2023-01-04T13:40:58.659Z,8.32
2023-01-04T13:43:46.113Z,4.15
2023-01-04T13:46:21.362Z,3.08
2023-01-04T13:48:50.938Z,4.75
2023-01-04T13:51:38.051Z,3.50
2023-01-04T13:54:17.081Z,3.08
2023-01-04T13:56:43.587Z,3.28
2023-01-04T13:59:10.724Z,3.45
2023-01-04T14:01:45.783Z,3.80
2023-01-04T14:04:28.948Z,3.10
2023-01-04T14:06:57.841Z,3.53
2023-01-04T14:09:32.780Z,2.47
2023-01-04T14:15:07.051Z,3.17
2023-01-04T14:17:36.312Z,2.80
2023-01-04T14:20:25.894Z,3.08
2023-01-04T14:22:55.968Z,2.40
2023-01-04T14:25:35.642Z,3.00
2023-01-04T14:28:18.222Z,3.00
2023-01-04T14:30:47.277Z,3.10
2023-01-04T14:33:18.253Z,3.42
2023-01-04T14:35:48.831Z,2.10
2023-01-04T14:38:19.030Z,2.05
2023-01-04T14:40:46.064Z,1.70
2023-01-04T14:43:33.698Z,1.98
2023-01-04T14:46:00.237Z,2.30
2023-01-04T14:48:28.772Z,1.65
2023-01-04T14:50:55.464Z,1.63
2023-01-04T14:53:21.826Z,2.00
2023-01-04T14:55:48.161Z,1.98
2023-01-04T14:58:14.504Z,1.67
2023-01-04T15:00:41.462Z,1.45
2023-01-04T15:03:09.623Z,1.50
2023-01-04T15:05:37.993Z,1.77
2023-01-04T15:08:05.093Z,2.42
2023-01-04T15:10:32.249Z,2.10
2023-01-04T15:13:00.624Z,2.33
2023-01-04T15:15:27.530Z,1.95
2023-01-04T15:17:54.041Z,2.75
2023-01-04T15:20:20.663Z,3.65
2023-01-04T15:22:47.316Z,1.98
2023-01-04T15:25:13.964Z,1.63
2023-01-04T15:27:42.822Z,4.78
2023-01-04T15:30:11.964Z,4.40
2023-01-04T15:32:39.357Z,2.10
2023-01-04T15:35:06.435Z,2.95
2023-01-04T15:37:33.309Z,2.28
2023-01-04T15:40:02.806Z,3.72
2023-01-04T15:42:48.665Z,2.85
2023-01-04T15:45:15.281Z,2.55
2023-01-04T15:47:41.922Z,2.05
2023-01-04T15:50:08.938Z,2.45
2023-01-04T15:52:35.642Z,3.15
2023-01-04T15:55:02.373Z,4.05
2023-01-04T15:57:29.224Z,2.35
2023-01-04T15:59:56.047Z,2.38
2023-01-04T16:02:22.844Z,2.88
2023-01-04T16:04:49.498Z,2.00
2023-01-04T16:07:17.171Z,1.80
2023-01-04T16:09:43.752Z,2.58
2023-01-04T16:12:29.264Z,2.72
2023-01-04T16:14:55.632Z,2.92
2023-01-04T16:17:22.189Z,2.10
2023-01-04T16:19:48.588Z,2.30
2023-01-04T16:22:15.235Z,2.08
2023-01-04T16:27:34.811Z,1.90
2023-01-04T16:30:04.330Z,2.03
2023-01-04T16:32:31.008Z,2.17
2023-01-04T16:34:57.520Z,1.98
2023-01-04T16:37:27.934Z,1.80
2023-01-04T16:40:06.288Z,1.80
2023-01-04T16:42:34.359Z,2.92
2023-01-04T16:45:04.036Z,1.65
2023-01-04T16:47:38.201Z,2.30
2023-01-04T16:50:04.962Z,1.55
2023-01-04T16:52:31.420Z,1.35
2023-01-04T16:54:57.999Z,2.88
2023-01-04T16:57:24.325Z,1.55
2023-01-04T16:59:50.693Z,1.15
2023-01-04T17:02:18.264Z,2.05
2023-01-04T17:04:44.741Z,4.70
2023-01-04T17:07:11.231Z,1.50
2023-01-04T17:09:40.917Z,2.55
2023-01-04T17:15:23.716Z,1.75
2023-01-04T17:17:42.205Z,1.85
2023-01-04T17:20:08.714Z,1.40
2023-01-04T17:22:35.210Z,2.20
2023-01-04T17:25:02.151Z,1.38
2023-01-04T17:27:28.537Z,5.82
2023-01-04T17:29:54.879Z,2.00
2023-01-04T17:32:21.261Z,2.55
2023-01-04T17:34:51.226Z,1.33
2023-01-04T17:37:17.593Z,1.13
2023-01-04T17:39:43.945Z,1.48
2023-01-04T17:42:10.415Z,1.30
2023-01-04T17:44:36.827Z,1.00
2023-01-04T17:47:03.166Z,1.00
2023-01-04T17:49:32.066Z,3.00
2023-01-04T17:51:59.346Z,1.50
2023-01-04T17:54:26.771Z,1.58
2023-01-04T17:56:53.293Z,1.30
2023-01-04T17:59:19.721Z,2.15
2023-01-04T18:01:46.195Z,2.00
2023-01-04T18:04:12.654Z,1.10
2023-01-04T18:06:39.145Z,1.35
2023-01-04T18:09:06.653Z,1.17
2023-01-04T18:11:34.016Z,1.83
2023-01-04T18:14:01.797Z,1.85
2023-01-04T18:16:31.230Z,0.95
2023-01-04T18:18:58.976Z,1.13
2023-01-04T18:21:30.156Z,1.20
2023-01-04T18:29:31.762Z,1.38
2023-01-04T18:31:58.293Z,1.40
2023-01-04T18:34:26.569Z,1.60
2023-01-04T18:36:53.357Z,1.42
2023-01-04T18:39:20.265Z,2.17
2023-01-04T18:41:46.928Z,1.60
2023-01-04T18:47:01.593Z,1.50
2023-01-04T18:49:28.072Z,3.28
2023-01-04T18:51:54.571Z,1.45
2023-01-04T18:54:21.420Z,1.40
2023-01-04T18:56:48.140Z,1.83
2023-01-04T18:59:17.185Z,1.65
2023-01-04T19:01:44.933Z,1.80
2023-01-04T19:04:12.864Z,1.92
2023-01-04T19:06:40.370Z,1.63
2023-01-04T19:09:07.393Z,1.60
2023-01-04T19:11:34.543Z,2.25
2023-01-04T19:14:01.747Z,1.80
2023-01-04T19:16:31.454Z,2.45
2023-01-04T19:18:59.687Z,2.40
2023-01-04T19:21:26.161Z,1.95
2023-01-04T19:23:52.713Z,1.60
2023-01-04T19:26:19.899Z,3.10
2023-01-04T19:28:46.268Z,2.33
2023-01-04T19:31:13.081Z,1.58
2023-01-04T19:33:39.547Z,2.33
2023-01-04T19:36:07.322Z,2.70
2023-01-04T19:38:33.731Z,1.73
2023-01-04T19:41:00.733Z,2.20
2023-01-04T19:43:27.251Z,1.83
2023-01-04T19:45:53.624Z,1.50
2023-01-04T19:48:20.155Z,1.85
2023-01-04T19:50:46.619Z,1.67
2023-01-04T19:53:13.792Z,4.10
2023-01-04T19:55:40.419Z,2.13
2023-01-04T19:58:06.897Z,2.40
2023-01-04T20:00:33.352Z,3.25
2023-01-04T20:03:00.212Z,3.53
2023-01-04T20:05:26.794Z,1.75
2023-01-04T20:07:53.197Z,2.10
2023-01-04T20:10:19.556Z,2.92
2023-01-04T20:12:45.980Z,2.67
2023-01-04T20:15:14.179Z,3.35
2023-01-04T20:17:40.600Z,3.67
2023-01-04T20:20:07.152Z,4.13
2023-01-04T20:22:33.520Z,3.90
2023-01-04T20:24:59.871Z,3.25
2023-01-04T20:27:26.261Z,3.97
2023-01-04T20:29:52.614Z,4.00
2023-01-04T20:32:18.993Z,4.32
2023-01-04T20:34:45.313Z,3.42
2023-01-04T20:37:11.637Z,3.25
2023-01-04T20:39:38.046Z,3.03
2023-01-04T20:42:22.858Z,2.00
2023-01-04T20:44:49.244Z,4.18
2023-01-04T20:47:15.665Z,2.67
2023-01-04T20:49:42.124Z,5.22
2023-01-04T20:52:08.487Z,2.60
2023-01-04T20:54:34.899Z,3.72
2023-01-04T20:57:01.246Z,2.72
2023-01-04T20:59:27.598Z,4.07
2023-01-04T21:01:54.360Z,3.92
2023-01-04T21:04:23.108Z,3.50
2023-01-04T21:06:49.478Z,7.63
2023-01-04T21:09:15.796Z,4.78
2023-01-04T21:11:42.152Z,2.92
2023-01-04T21:14:10.869Z,3.60
2023-01-04T21:16:41.134Z,2.83
2023-01-04T21:19:08.659Z,3.85
2023-01-04T21:21:35.212Z,3.45
2023-01-04T21:24:01.575Z,2.92
2023-01-04T21:26:28.092Z,6.32
2023-01-04T21:28:54.442Z,5.22
2023-01-04T21:31:23.850Z,6.65
2023-01-04T21:33:53.334Z,7.45
2023-01-04T21:36:22.341Z,5.45
2023-01-04T21:38:50.027Z,3.80
2023-01-04T21:41:16.953Z,2.92
2023-01-04T21:43:43.637Z,2.22
2023-01-04T21:46:12.314Z,2.20
2023-01-04T21:48:38.858Z,2.33
2023-01-04T21:51:05.759Z,1.95
2023-01-04T21:53:33.584Z,2.72
2023-01-04T21:56:01.423Z,2.00
2023-01-04T21:58:28.418Z,1.80
2023-01-04T22:00:55.810Z,2.00
2023-01-04T22:03:22.893Z,2.70
2023-01-04T22:05:49.796Z,3.58
2023-01-04T22:08:16.299Z,2.08
2023-01-04T22:10:42.680Z,3.03
2023-01-04T22:13:09.477Z,2.22
2023-01-04T22:15:40.025Z,1.73
2023-01-04T22:18:06.912Z,1.80
2023-01-04T22:20:33.346Z,2.42
2023-01-04T22:22:59.765Z,1.33
2023-01-04T22:25:26.227Z,2.20
2023-01-04T22:27:52.652Z,1.40
2023-01-04T22:30:19.103Z,1.10
2023-01-04T22:32:45.463Z,1.33
2023-01-04T22:35:11.817Z,2.55
2023-01-04T22:37:38.287Z,1.58
2023-01-04T22:40:05.159Z,1.55
2023-01-04T22:42:31.581Z,2.15
2023-01-04T22:44:57.991Z,2.88
2023-01-04T22:47:24.314Z,4.18
2023-01-04T22:49:50.773Z,2.17
2023-01-04T22:52:17.144Z,2.58
2023-01-04T22:54:43.540Z,3.17
2023-01-04T22:57:09.923Z,2.53
2023-01-04T22:59:36.320Z,1.65
2023-01-04T23:02:04.336Z,1.80
2023-01-04T23:04:30.707Z,1.67
2023-01-04T23:06:57.024Z,2.22
2023-01-04T23:09:23.451Z,1.92
2023-01-04T23:11:49.792Z,2.83
2023-01-04T23:14:17.101Z,1.88
2023-01-04T23:16:44.551Z,1.98
2023-01-04T23:19:12.452Z,4.03
2023-01-04T23:21:39.041Z,3.70
2023-01-04T23:24:05.740Z,3.65
2023-01-04T23:26:32.492Z,2.13
2023-01-04T23:29:00.316Z,2.92
2023-01-04T23:31:28.617Z,3.17
2023-01-04T23:33:58.355Z,3.60
2023-01-04T23:36:30.438Z,3.63
2023-01-04T23:39:01.559Z,1.63
2023-01-04T23:41:51.360Z,2.33
2023-01-04T23:44:28.869Z,4.97
2023-01-04T23:47:00.759Z,3.42
2023-01-04T23:49:29.997Z,2.17
2023-01-04T23:51:56.524Z,1.83
2023-01-04T23:54:23.688Z,2.05
2023-01-04T23:56:50.188Z,2.67
2023-01-04T23:59:19.071Z,2.50
